Latest Weather Observations for Mount Gambier

IDS60801

Issued at 9:01 am CST Thursday 30 July 2015 (issued every 30 minutes, with the page automatically refreshed every 10 minutes)

About weather observations | Map of weather stations | Latest weather observations for SA | Other Formats
Station Details ID: 026021 Name: MOUNT GAMBIER AERO Lat: -37.75 Lon: 140.77 Height: 63.0 m
Data from the previous 72 hours. | See also: Recent months at Mount Gambier
Date/Time
CST
Temp
°C
App
Temp
°C
Dew
Point
Rel
Hum
%
Delta-T
°C
Wind Press
QNH
hPa
Press
MSL
hPa
Rain
since 9 am
mm
Dir
 
Spd
km/h
Gust
km/h
Spd
kts
Gust
kts
30/08:30am 7.4 1.1 3.9 78 1.5 N 26 35 14 19 1015.6 1015.7 0.2
30/08:00am 6.8 0.9 4.0 82 1.2 N 24 32 13 17 1016.1 1016.2 0.2
30/07:30am 7.3 1.2 3.0 74 1.8 N 24 32 13 17 1016.2 1016.3 0.0
30/07:00am 6.8 1.3 3.8 81 1.3 N 22 30 12 16 1016.1 1016.2 0.0
30/06:30am 7.6 1.5 2.6 70 2.1 N 24 33 13 18 1016.3 1016.4 0.0
30/06:00am 7.6 1.9 2.6 70 2.1 N 22 30 12 16 1016.3 1016.4 0.0
30/05:30am 7.6 0.7 2.3 69 2.2 N 28 37 15 20 1016.5 1016.6 0.0
30/05:00am 7.3 0.8 2.8 73 1.9 N 26 32 14 17 1016.9 1017.0 0.0
30/04:30am 7.5 1.0 2.5 70 2.1 N 26 39 14 21 1017.4 1017.5 0.0
30/04:00am 7.2 0.7 2.4 71 2.0 N 26 37 14 20 1017.9 1018.0 0.0
30/03:30am 7.3 0.4 2.5 71 2.0 N 28 39 15 21 1018.5 1018.6 0.0
30/03:00am 7.2 0.7 2.6 72 1.9 N 26 33 14 18 1018.9 1019.0 0.0
30/02:30am 7.0 0.9 2.7 74 1.8 N 24 35 13 19 1019.4 1019.5 0.0
30/02:00am 6.4 1.1 2.8 78 1.5 N 20 32 11 17 1020.0 1020.1 0.0
30/01:30am 6.2 1.1 2.8 79 1.4 N 19 26 10 14 1020.5 1020.6 0.0
30/01:00am 6.7 1.6 2.9 77 1.6 N 19 30 10 16 1020.8 1020.9 0.0
30/12:30am 6.7 1.4 3.1 78 1.5 N 20 28 11 15 1021.0 1021.1 0.0
30/12:00am 7.1 1.4 2.8 74 1.8 N 22 32 12 17 1021.6 1021.7 0.0
 
Date/Time
CST
Temp
°C
App
Temp
°C
Dew
Point
Rel
Hum
%
Delta-T
°C
Wind Press
QNH
hPa
Press
MSL
hPa
Rain
since 9 am
mm
Dir
 
Spd
km/h
Gust
km/h
Spd
kts
Gust
kts
29/11:30pm 6.9 1.6 3.1 77 1.6 N 20 30 11 16 1022.2 1022.4 0.0
29/11:00pm 7.3 2.6 3.3 76 1.7 N 17 24 9 13 1022.8 1023.0 0.0
29/10:30pm 7.7 3.1 3.5 75 1.8 N 17 24 9 13 1023.2 1023.4 0.0
29/10:00pm 8.3 3.6 3.4 71 2.1 N 17 26 9 14 1023.3 1023.5 0.0
29/09:30pm 8.3 3.0 3.1 70 2.2 N 20 28 11 15 1023.6 1023.8 0.0
29/09:00pm 8.8 3.5 3.2 68 2.4 N 20 32 11 17 1023.6 1023.8 0.0
29/08:30pm 8.9 3.7 3.6 69 2.3 N 20 28 11 15 1023.7 1023.9 0.0
29/08:00pm 8.8 3.8 3.7 70 2.2 N 19 26 10 14 1023.9 1024.1 0.0
29/07:30pm 8.7 4.1 3.9 72 2.1 NNE 17 24 9 13 1024.2 1024.4 0.0
29/07:00pm 8.8 3.9 4.0 72 2.1 N 19 28 10 15 1024.3 1024.5 0.0
29/06:30pm 9.0 4.1 3.9 70 2.2 N 19 26 10 14 1024.3 1024.5 0.0
29/06:00pm 9.2 4.2 3.7 68 2.4 N 19 30 10 16 1024.5 1024.7 0.0
29/05:30pm 9.2 4.3 3.9 69 2.3 N 19 26 10 14 1024.1 1024.3 0.0
29/05:00pm 9.3 4.9 4.8 73 2.0 N 17 20 9 11 1024.6 1024.8 0.0
29/04:30pm 9.9 5.1 4.8 70 2.3 N 19 26 10 14 1024.8 1025.0 0.0
29/04:00pm 10.2 5.4 4.6 68 2.5 N 19 24 10 13 1025.0 1025.2 0.0
29/03:30pm 10.8 6.0 4.6 65 2.8 N 19 30 10 16 1025.4 1025.6 0.0
29/03:00pm 10.9 5.8 4.2 63 3.0 N 20 28 11 15 1025.2 1025.4 0.0
29/02:30pm 11.2 5.8 4.5 63 3.0 N 22 33 12 18 1025.6 1025.8 0.0
29/02:00pm 11.9 7.0 4.9 62 3.2 N 20 33 11 18 1025.7 1025.9 0.0
29/01:30pm 11.6 5.9 5.0 64 3.0 N 24 35 13 19 1026.3 1026.4 0.0
29/01:00pm 11.3 6.4 4.9 65 2.9 N 20 33 11 18 1026.9 1027.0 0.0
29/12:30pm 10.9 6.0 5.2 68 2.6 N 20 32 11 17 1027.5 1027.6 0.0
29/12:00pm 10.8 6.1 5.1 68 2.6 N 19 32 10 17 1028.4 1028.5 0.0
29/11:30am 10.6 5.8 5.6 71 2.3 N 20 32 11 17 1029.2 1029.3 0.0
29/11:00am 10.1 6.0 6.0 76 1.9 N 17 26 9 14 1029.8 1029.9 0.0
29/10:30am 9.5 5.4 6.2 80 1.5 N 17 26 9 14 1030.3 1030.4 0.0
29/10:00am 9.3 6.1 6.7 84 1.2 N 13 17 7 9 1030.6 1030.7 0.0
29/09:30am 8.8 5.7 7.1 89 0.8 N 13 17 7 9 1030.9 1031.0 0.0
29/09:00am 8.5 5.4 7.4 93 0.5 N 13 19 7 10 1031.0 1031.1 0.2
29/08:30am 7.8 4.3 7.2 96 0.3 N 15 22 8 12 1030.9 1031.0 0.0
29/08:00am 7.3 3.7 6.9 97 0.2 N 15 19 8 10 1031.0 1031.1 0.0
29/07:30am 6.6 3.3 6.2 97 0.2 NNE 13 19 7 10 1030.9 1031.0 0.0
29/07:00am 6.2 2.4 5.7 97 0.2 N 15 17 8 9 1031.2 1031.3 0.0
29/06:30am 5.9 2.4 5.4 97 0.2 N 13 19 7 10 1030.9 1031.0 0.0
29/06:00am 6.2 3.1 5.7 97 0.2 N 11 15 6 8 1031.0 1031.1 0.0
29/05:30am 6.4 3.0 6.0 97 0.2 N 13 20 7 11 1031.0 1031.1 0.0
29/05:00am 6.6 2.5 6.4 99 0.1 N 17 19 9 10 1030.7 1030.8 0.0
29/04:30am 6.5 3.2 6.5 100 0.0 N 13 19 7 10 1031.0 1031.1 0.0
29/04:05am 6.3 2.9 6.1 99 0.1 N 13 15 7 8 1030.9 1031.0 0.0
29/04:00am 6.3 2.9 6.1 99 0.1 N 13 15 7 8 1030.9 1031.0 0.0
29/03:37am 6.3 3.3 6.1 99 0.1 N 11 13 6 7 1031.1 1031.2 0.0
29/03:30am 6.3 3.3 6.1 99 0.1 N 11 15 6 8 1031.2 1031.3 0.0
29/03:15am 6.6 3.7 6.6 100 0.0 N 11 15 6 8 1031.3 1031.4 0.0
29/03:03am 6.8 4.0 6.8 100 0.0 N 11 17 6 9 1031.4 1031.5 0.0
29/03:00am 6.9 4.0 6.7 99 0.1 N 11 15 6 8 1031.3 1031.4 0.0
29/02:30am 6.8 3.5 6.6 99 0.1 N 13 17 7 9 1031.5 1031.6 0.0
29/02:19am 6.6 3.7 6.6 100 0.0 N 11 15 6 8 1031.3 1031.4 0.0
29/02:14am 6.9 4.0 6.5 97 0.2 N 11 15 6 8 1031.3 1031.4 0.0
29/02:00am 6.8 3.5 6.4 97 0.2 N 13 17 7 9 1031.7 1031.8 0.0
29/01:30am 6.9 3.6 6.5 97 0.2 N 13 17 7 9 1031.7 1031.8 0.0
29/01:00am 7.0 3.7 6.6 97 0.2 N 13 19 7 10 1031.8 1031.9 0.0
29/12:30am 7.0 3.4 6.8 99 0.1 NNW 15 17 8 9 1032.4 1032.5 0.0
29/12:00am 7.2 3.3 7.0 99 0.1 NNW 17 20 9 11 1032.6 1032.7 0.0
 
Date/Time
CST
Temp
°C
App
Temp
°C
Dew
Point
Rel
Hum
%
Delta-T
°C
Wind Press
QNH
hPa
Press
MSL
hPa
Rain
since 9 am
mm
Dir
 
Spd
km/h
Gust
km/h
Spd
kts
Gust
kts
28/11:30pm 6.9 3.0 6.9 100 0.0 NNW 17 22 9 12 1032.6 1032.7 0.0
28/11:00pm 6.8 2.7 6.4 97 0.2 NNW 17 24 9 13 1032.9 1033.0 0.0
28/10:30pm 6.5 1.9 6.3 99 0.1 NNW 20 28 11 15 1033.1 1033.2 0.0
28/10:00pm 6.5 2.4 6.3 99 0.1 N 17 24 9 13 1033.0 1033.1 0.0
28/09:30pm 6.3 2.1 5.8 97 0.2 N 17 24 9 13 1033.6 1033.7 0.0
28/09:00pm 6.1 3.8 5.6 97 0.2 NE 7 11 4 6 1033.6 1033.7 0.0
28/08:30pm 6.0 3.7 5.8 99 0.1 NNE 7 7 4 4 1033.8 1034.0 0.0
28/08:00pm 7.3 5.8 6.6 95 0.3 W 4 7 2 4 1033.8 1034.0 0.0
28/07:30pm 7.0 4.4 6.1 94 0.4 NNW 9 11 5 6 1034.0 1034.2 0.0
28/07:00pm 8.3 5.9 7.2 93 0.5 NNW 9 11 5 6 1034.0 1034.2 0.0
28/06:30pm 8.6 6.3 7.5 93 0.5 NNW 9 11 5 6 1033.8 1034.0 0.0
28/06:00pm 9.5 6.5 7.6 88 0.9 NW 13 15 7 8 1033.6 1033.7 0.0
28/05:30pm 9.5 7.2 7.6 88 0.9 WNW 9 11 5 6 1033.6 1033.7 0.0
28/05:00pm 10.5 7.9 7.8 83 1.3 W 11 13 6 7 1033.5 1033.6 0.0
28/04:30pm 11.5 8.5 7.5 76 1.9 W 13 17 7 9 1033.2 1033.3 0.0
28/04:00pm 12.4 8.1 7.0 69 2.6 W 19 24 10 13 1033.5 1033.6 0.0
28/03:30pm 12.0 7.5 7.0 71 2.4 WSW 20 28 11 15 1033.5 1033.6 0.0
28/03:00pm 12.8 8.4 6.7 66 2.9 W 19 26 10 14 1033.3 1033.4 0.0
28/02:30pm 12.6 7.7 6.7 67 2.8 W 22 30 12 16 1033.3 1033.4 0.0
28/02:00pm 13.4 8.4 6.5 63 3.3 W 22 30 12 16 1033.3 1033.4 0.0
28/01:30pm 13.4 9.3 7.7 68 2.8 WNW 19 28 10 15 1033.5 1033.6 0.0
28/01:00pm 12.3 8.7 8.2 76 2.0 NW 17 22 9 12 1034.0 1034.2 0.0
28/12:30pm 11.9 9.1 8.4 79 1.7 W 13 20 7 11 1034.4 1034.6 0.0
28/12:00pm 10.8 7.4 9.0 89 0.9 W 17 19 9 10 1034.9 1035.1 0.0
28/11:30am 10.7 8.1 9.3 91 0.7 NW 13 19 7 10 1035.3 1035.5 0.0
28/11:00am 9.9 7.6 9.1 95 0.4 NNW 11 15 6 8 1035.7 1035.9 0.0
28/10:54am 9.5 6.8 8.9 96 0.3 NNW 13 17 7 9 1035.8 1036.0 0.0
28/10:30am 9.7 7.0 9.1 96 0.3 NW 13 17 7 9 1036.1 1036.3 0.0
28/10:27am 9.5 6.8 8.9 96 0.3 NW 13 19 7 10 1036.1 1036.3 0.0
28/10:00am 9.0 6.2 8.6 97 0.2 NNW 13 17 7 9 1035.8 1036.0 0.0
28/09:30am 8.5 5.3 8.3 99 0.1 N 15 20 8 11 1035.6 1035.8 0.0
28/09:14am 7.7 5.1 7.7 100 0.0 N 11 17 6 9 1035.6 1035.8 0.0
28/09:00am 7.7 4.7 7.5 99 0.1 NNW 13 15 7 8 1035.5 1035.7 1.2
28/08:30am 6.8 3.2 6.8 100 0.0 NNW 15 17 8 9 1035.3 1035.5 1.2
28/08:11am 6.7 3.5 6.7 100 0.0 NNW 13 20 7 11 1035.4 1035.6 1.2
28/08:00am 6.6 3.3 6.4 99 0.1 NNW 13 17 7 9 1035.3 1035.5 1.0
28/07:30am 5.9 2.5 5.9 100 0.0 NNW 13 19 7 10 1035.2 1035.4 1.0
28/07:20am 5.7 1.9 5.7 100 0.0 NNW 15 19 8 10 1035.2 1035.4 1.0
28/07:00am 5.6 2.5 5.6 100 0.0 NNW 11 15 6 8 1034.9 1035.1 1.0
28/06:30am 5.5 3.1 5.3 99 0.1 NNW 7 9 4 5 1034.6 1034.8 1.0
28/06:00am 5.6 3.5 5.6 100 0.0 W 6 7 3 4 1034.4 1034.6 1.0
28/05:30am 5.2 2.4 5.2 100 0.0 NW 9 13 5 7 1034.0 1034.2 1.0
28/05:00am 5.8 2.0 5.6 99 0.1 NNW 15 17 8 9 1033.7 1033.8 1.0
28/04:30am 4.9 1.2 4.7 99 0.1 NNW 13 15 7 8 1033.5 1033.6 1.0
28/04:00am 5.6 2.1 5.4 99 0.1 NNW 13 17 7 9 1033.4 1033.5 1.0
28/03:30am 5.0 1.0 4.8 99 0.1 NNW 15 17 8 9 1033.5 1033.6 1.0
28/03:00am 4.7 0.6 4.5 99 0.1 NNW 15 19 8 10 1033.6 1033.7 1.0
28/02:30am 4.9 1.2 4.7 99 0.1 NW 13 15 7 8 1033.8 1034.0 1.0
28/02:00am 4.9 1.2 4.7 99 0.1 NNW 13 17 7 9 1033.7 1033.8 1.0
28/01:30am 5.5 1.5 5.0 97 0.2 NNW 15 19 8 10 1033.7 1033.8 1.0
28/01:00am 6.0 2.2 5.8 99 0.1 NW 15 17 8 9 1033.4 1033.5 1.0
28/12:30am 5.2 0.9 5.2 100 0.0 NW 17 20 9 11 1033.2 1033.3 1.0
28/12:00am 5.2 1.2 4.7 97 0.2 NW 15 17 8 9 1033.4 1033.5 1.0
 
Date/Time
CST
Temp
°C
App
Temp
°C
Dew
Point
Rel
Hum
%
Delta-T
°C
Wind Press
QNH
hPa
Press
MSL
hPa
Rain
since 9 am
mm
Dir
 
Spd
km/h
Gust
km/h
Spd
kts
Gust
kts
27/11:30pm 4.3 -0.2 4.1 99 0.1 NNW 17 20 9 11 1033.4 1033.5 1.0
27/11:00pm 4.3 0.2 4.1 99 0.1 NNW 15 17 8 9 1033.2 1033.3 1.0
27/10:30pm 4.9 0.8 4.4 97 0.2 NNW 15 17 8 9 1033.2 1033.3 0.8
27/10:00pm 4.9 1.2 4.4 97 0.2 NNW 13 15 7 8 1033.2 1033.3 0.8
27/09:30pm 4.8 1.5 4.6 99 0.1 NW 11 11 6 6 1033.2 1033.3 0.8
27/09:00pm 5.3 1.6 4.6 95 0.3 NW 13 15 7 8 1033.1 1033.2 0.8
27/08:30pm 6.2 2.7 5.5 95 0.3 NW 13 15 7 8 1033.1 1033.2 0.8
27/08:00pm 6.6 3.2 5.9 95 0.3 NW 13 15 7 8 1033.1 1033.2 0.8
27/07:30pm 7.1 3.8 6.4 95 0.3 NW 13 15 7 8 1033.0 1033.1 0.8
27/07:00pm 7.1 4.2 6.4 95 0.3 NW 11 13 6 7 1032.8 1032.9 0.8
27/06:30pm 6.8 4.3 6.4 97 0.2 NW 9 11 5 6 1032.7 1032.8 0.8
27/06:00pm 8.0 6.0 7.1 94 0.4 W 7 7 4 4 1032.5 1032.6 0.8
27/05:30pm 8.5 5.8 7.2 91 0.6 WNW 11 13 6 7 1032.3 1032.4 0.8
27/05:00pm 9.5 6.0 7.4 87 1.0 WSW 15 19 8 10 1032.0 1032.1 0.8
27/04:30pm 10.3 7.1 6.9 79 1.6 WSW 13 19 7 10 1031.9 1032.0 0.8
27/04:00pm 10.0 5.6 7.2 83 1.3 WSW 20 28 11 15 1031.7 1031.8 0.8
27/03:30pm 11.2 7.7 7.4 77 1.8 W 15 20 8 11 1031.5 1031.6 0.8
27/03:00pm 11.5 6.5 6.4 71 2.4 WSW 22 32 12 17 1031.3 1031.4 0.8
27/02:30pm 10.6 5.4 7.2 79 1.6 WSW 24 33 13 18 1031.1 1031.2 0.8
27/02:00pm 11.1 6.0 7.6 79 1.7 WSW 24 43 13 23 1030.9 1031.0 0.8
27/01:52pm 10.4 5.3 7.5 82 1.4 W 24 43 13 23 1031.0 1031.1 0.8
27/01:30pm 10.6 6.3 7.2 79 1.6 WSW 19 26 10 14 1030.8 1030.9 0.8
27/01:00pm 11.0 7.0 6.8 75 2.0 SW 17 20 9 11 1030.7 1030.8 0.8
27/12:30pm 11.1 6.8 8.0 81 1.5 WSW 20 30 11 16 1030.8 1030.9 0.8
27/12:14pm 10.7 6.0 7.6 81 1.5 W 22 28 12 15 1030.9 1031.0 0.8
27/12:00pm 11.1 7.7 7.6 79 1.7 W 15 26 8 14 1031.0 1031.1 0.6
27/11:46am 9.6 6.6 7.7 88 0.9 SW 13 20 7 11 1031.2 1031.3 0.6
27/11:30am 9.3 4.5 7.2 87 1.0 SW 22 32 12 17 1031.5 1031.6 0.6
27/11:03am 9.5 6.0 7.4 87 1.0 WSW 15 19 8 10 1031.6 1031.7 0.4
27/11:00am 9.2 5.3 7.3 88 0.9 WSW 17 22 9 12 1031.7 1031.8 0.4
27/10:37am 9.1 3.8 7.0 87 1.0 W 24 32 13 17 1031.8 1031.9 0.0
27/10:30am 9.6 4.2 6.3 80 1.5 WSW 24 35 13 19 1031.8 1031.9 0.0
27/10:00am 10.9 6.1 4.7 65 2.8 SW 19 26 10 14 1031.3 1031.4 0.0
27/09:30am 9.9 5.8 4.2 67 2.5 WSW 15 19 8 10 1030.9 1031.0 0.0

Other Formats:

Comma delimited format used in spreadsheet applications
http://www.bom.gov.au/fwo/IDS60801/IDS60801.94821.axf

JavaScript Object Notation format (JSON) in row-major order
http://www.bom.gov.au/fwo/IDS60801/IDS60801.94821.json